Time;durP1;ratioP1;P1;durP2;ratioP2;P2;SDS_P1;SDS_P2;PMS_P1;PMS_P2;Temp;Humidity;BMP_temperature;BMP_pressure;BME280_temperature;BME280_humidity;BME280_pressure;Samples;Min_cycle;Max_cycle;Signal;HPM_P1;HPM_P2
2022/11/02 00:04:43;;;;;;;2.28;1.08;;;18.90;59.60;;;;;;10413191;28;20021;-67
2022/11/02 00:09:44;;;;;;;3.20;0.60;;;18.90;59.40;;;;;;10432441;28;20055;-67
2022/11/02 00:14:44;;;;;;;2.63;0.85;;;18.90;59.30;;;;;;10448829;28;20651;-67
2022/11/02 00:19:45;;;;;;;2.30;0.80;;;18.90;59.30;;;;;;10462125;28;20021;-67
2022/11/02 00:24:46;;;;;;;1.52;1.00;;;18.90;59.10;;;;;;10435606;28;20588;-67
2022/11/02 00:29:46;;;;;;;1.83;0.50;;;18.90;59.00;;;;;;10408903;28;20075;-67
2022/11/02 00:34:47;;;;;;;3.70;1.48;;;18.90;58.90;;;;;;10409582;28;20018;-66
2022/11/02 00:39:48;;;;;;;1.20;0.50;;;18.90;58.90;;;;;;10405220;28;20125;-66
2022/11/02 00:44:48;;;;;;;1.08;0.40;;;18.90;58.70;;;;;;10423533;28;20086;-66
2022/11/02 00:49:49;;;;;;;1.35;0.47;;;18.90;58.60;;;;;;10449285;28;20059;-67
2022/11/02 00:54:50;;;;;;;1.77;0.65;;;18.90;58.50;;;;;;10442725;28;20112;-67
2022/11/02 00:59:50;;;;;;;1.83;0.52;;;18.90;58.40;;;;;;10423073;28;20096;-68
2022/11/02 01:04:51;;;;;;;1.45;0.40;;;18.90;58.30;;;;;;10408632;28;20179;-67
2022/11/02 01:09:52;;;;;;;1.40;0.73;;;18.90;58.20;;;;;;10418700;28;20583;-66
2022/11/02 01:14:52;;;;;;;0.93;0.50;;;18.90;58.10;;;;;;10406581;28;20116;-67
2022/11/02 01:19:53;;;;;;;2.13;1.15;;;18.90;58.00;;;;;;10438414;28;20024;-67
2022/11/02 01:24:54;;;;;;;1.30;0.60;;;18.90;57.90;;;;;;10420092;28;20055;-67
2022/11/02 01:29:55;;;;;;;1.90;0.60;;;18.90;57.80;;;;;;10408024;28;20025;-67
2022/11/02 01:34:55;;;;;;;1.85;0.60;;;18.90;57.70;;;;;;10422706;28;20021;-67
2022/11/02 01:39:56;;;;;;;1.45;0.70;;;18.90;57.60;;;;;;10446188;28;20044;-66
2022/11/02 01:44:57;;;;;;;2.05;0.50;;;18.90;57.60;;;;;;10446636;28;20043;-66
2022/11/02 01:50:07;;;;;;;2.70;1.77;;;18.90;57.60;;;;;;10447456;28;20025;-66
2022/11/02 01:55:19;;;;;;;0.98;0.50;;;18.90;57.50;;;;;;10433053;28;20106;-67
2022/11/02 02:00:20;;;;;;;0.85;0.55;;;18.80;58.00;;;;;;10442352;28;20048;-65
2022/11/02 02:05:23;;;;;;;1.58;0.50;;;18.90;57.30;;;;;;10428749;28;20024;-66
2022/11/02 02:10:23;;;;;;;1.80;0.60;;;18.90;57.80;;;;;;10430349;28;20579;-64
2022/11/02 02:15:38;;;;;;;1.25;0.40;;;18.90;57.20;;;;;;10447145;28;20043;-65
2022/11/02 02:21:16;;;;;;;1.40;0.40;;;18.80;57.00;;;;;;10435764;28;20064;-66
2022/11/02 02:26:40;;;;;;;1.80;0.30;;;18.80;57.00;;;;;;10427167;28;20025;-66
2022/11/02 02:32:17;;;;;;;1.13;0.43;;;18.80;56.90;;;;;;10407177;28;20025;-67
2022/11/02 02:38:00;;;;;;;1.67;0.35;;;18.80;56.90;;;;;;10429301;28;20074;-67
2022/11/02 02:43:29;;;;;;;1.63;0.40;;;18.80;57.50;;;;;;10446723;28;20116;-66
2022/11/02 02:48:31;;;;;;;1.38;0.38;;;18.70;57.70;;;;;;10417594;28;20365;-67
2022/11/02 02:53:45;;;;;;;0.82;0.30;;;18.60;58.80;;;;;;10432156;28;20456;-67
2022/11/02 02:59:28;;;;;;;1.38;0.40;;;18.60;59.40;;;;;;10435840;28;20087;-67
2022/11/02 03:04:29;;;;;;;2.00;0.50;;;18.60;59.90;;;;;;10411822;28;20572;-67
2022/11/02 03:09:33;;;;;;;0.88;0.30;;;18.60;60.30;;;;;;10408324;28;20120;-67
2022/11/02 03:15:06;;;;;;;0.45;0.30;;;18.60;60.70;;;;;;10419576;28;20017;-67
2022/11/02 03:20:17;;;;;;;1.10;0.30;;;18.60;60.80;;;;;;10433384;28;20037;-67
2022/11/02 03:25:27;;;;;;;1.13;0.50;;;18.50;61.10;;;;;;10440549;28;20440;-67
2022/11/02 03:30:36;;;;;;;1.20;0.55;;;18.50;61.20;;;;;;10414391;28;20032;-67
2022/11/02 03:35:51;;;;;;;0.60;0.30;;;18.50;61.30;;;;;;10418734;28;20491;-67
2022/11/02 03:40:55;;;;;;;1.80;0.32;;;18.50;61.60;;;;;;10437493;28;20856;-67
2022/11/02 03:45:59;;;;;;;0.60;0.50;;;18.50;61.50;;;;;;10454338;28;20033;-66
2022/11/02 03:51:05;;;;;;;0.70;0.40;;;18.50;60.40;;;;;;10439223;28;20029;-66
2022/11/02 03:56:19;;;;;;;1.13;0.60;;;18.60;59.90;;;;;;10424061;28;20175;-67
2022/11/02 04:01:20;;;;;;;1.10;0.40;;;18.60;59.40;;;;;;10445634;28;20032;-67
2022/11/02 04:06:22;;;;;;;1.42;0.40;;;18.60;59.00;;;;;;10445355;28;20017;-67
2022/11/02 04:16:42;;;;;;;1.07;0.50;;;18.70;58.40;;;;;;10417502;28;20475;-66
2022/11/02 04:25:14;;;;;;;1.50;0.85;;;18.60;58.20;;;;;;10434227;28;20034;-67
2022/11/02 04:27:03;;;;;;;0.98;0.40;;;18.60;58.00;;;;;;10439367;28;20053;-67
2022/11/02 04:32:04;;;;;;;1.83;0.60;;;18.70;57.70;;;;;;10439329;28;20758;-67
2022/11/02 04:38:39;;;;;;;0.82;0.43;;;18.70;57.60;;;;;;10426108;28;20526;-67
2022/11/02 04:42:25;;;;;;;1.40;0.30;;;18.70;57.50;;;;;;10437809;28;20076;-67
2022/11/02 04:47:26;;;;;;;1.13;0.40;;;18.70;57.30;;;;;;10431510;28;20100;-67
2022/11/02 04:52:27;;;;;;;0.85;0.40;;;18.70;57.10;;;;;;10464316;28;20091;-65
2022/11/02 04:57:27;;;;;;;2.38;0.60;;;18.70;57.00;;;;;;10418779;28;20069;-66
2022/11/02 05:02:28;;;;;;;0.60;0.30;;;18.70;56.90;;;;;;10419582;28;20115;-67
2022/11/02 05:07:28;;;;;;;1.00;0.60;;;18.60;57.20;;;;;;10439114;28;20634;-67
2022/11/02 05:12:29;;;;;;;1.25;0.40;;;18.60;58.00;;;;;;10451379;28;20048;-67
2022/11/02 05:17:30;;;;;;;0.95;0.40;;;18.50;58.80;;;;;;10426371;28;20025;-66
2022/11/02 05:22:31;;;;;;;1.02;0.55;;;18.50;59.40;;;;;;10445424;28;20105;-66
2022/11/02 05:27:31;;;;;;;2.58;0.55;;;18.50;59.80;;;;;;10428067;28;20159;-66
2022/11/02 05:32:32;;;;;;;1.05;0.52;;;18.50;60.10;;;;;;10439808;28;20135;-66
2022/11/02 05:37:33;;;;;;;1.35;0.47;;;18.40;60.30;;;;;;10449513;28;20702;-65
2022/11/02 05:42:34;;;;;;;0.80;0.35;;;18.40;60.60;;;;;;10461363;28;20120;-65
2022/11/02 05:47:34;;;;;;;3.97;1.00;;;18.40;60.80;;;;;;10439236;28;20021;-66
2022/11/02 05:52:35;;;;;;;3.08;0.68;;;18.40;62.40;;;;;;10461425;28;20039;-63
2022/11/02 05:57:36;;;;;;;9.77;1.38;;;18.50;62.60;;;;;;10414638;28;20049;-64
2022/11/02 06:02:36;;;;;;;8.65;1.42;;;18.60;63.40;;;;;;10429004;28;20040;-64
2022/11/02 06:07:38;;;;;;;10.27;2.30;;;18.60;63.90;;;;;;10412258;28;20049;-74
2022/11/02 06:12:39;;;;;;;10.57;1.52;;;18.60;64.80;;;;;;10413407;28;20160;-70
2022/11/02 06:17:40;;;;;;;11.38;1.73;;;18.60;64.60;;;;;;10417576;28;20104;-66
2022/11/02 06:22:41;;;;;;;9.35;1.40;;;18.60;64.80;;;;;;10432680;28;20120;-70
2022/11/02 06:27:55;;;;;;;7.95;1.58;;;18.60;64.80;;;;;;10433703;28;20021;-68
2022/11/02 06:32:56;;;;;;;14.32;2.10;;;18.60;65.10;;;;;;10432217;28;20032;-64
2022/11/02 06:37:56;;;;;;;11.38;1.42;;;18.60;65.40;;;;;;10441187;28;20490;-70
2022/11/02 06:42:57;;;;;;;12.15;1.48;;;18.60;65.80;;;;;;10435029;28;20078;-66
2022/11/02 06:47:58;;;;;;;15.98;2.50;;;18.60;65.80;;;;;;10443236;28;20009;-65
2022/11/02 06:52:59;;;;;;;8.65;1.90;;;18.70;65.60;;;;;;10433147;28;20057;-68
2022/11/02 06:57:59;;;;;;;26.90;3.40;;;18.60;65.90;;;;;;10448263;28;20064;-66
2022/11/02 07:03:08;;;;;;;13.30;2.17;;;18.60;66.20;;;;;;10461578;28;20522;-73
2022/11/02 07:08:09;;;;;;;23.73;2.47;;;18.60;66.30;;;;;;10434804;28;20111;-66
2022/11/02 07:13:09;;;;;;;17.55;3.10;;;18.60;66.40;;;;;;10439669;28;20738;-68
2022/11/02 07:18:11;;;;;;;14.52;2.55;;;18.50;66.50;;;;;;10438784;28;20056;-68
2022/11/02 07:23:12;;;;;;;10.98;2.13;;;18.50;67.00;;;;;;10441458;28;20029;-69
2022/11/02 07:28:12;;;;;;;8.52;1.88;;;18.50;66.30;;;;;;10444349;28;20460;-70
2022/11/02 07:33:13;;;;;;;14.40;2.47;;;18.40;66.00;;;;;;10432162;28;20421;-69
2022/11/02 07:38:14;;;;;;;21.45;3.42;;;18.50;66.60;;;;;;10412940;28;20064;-70
2022/11/02 07:43:15;;;;;;;8.10;2.05;;;18.40;66.60;;;;;;10443748;28;20033;-71
2022/11/02 07:48:15;;;;;;;14.48;2.80;;;18.40;66.60;;;;;;10427603;28;20045;-70
2022/11/02 07:53:16;;;;;;;13.70;2.83;;;18.40;66.70;;;;;;10450045;28;20509;-71
2022/11/02 07:58:17;;;;;;;12.80;2.20;;;18.40;66.90;;;;;;10434749;28;20068;-71
2022/11/02 08:03:17;;;;;;;13.45;3.33;;;18.40;66.90;;;;;;10431757;28;20143;-69
2022/11/02 08:08:23;;;;;;;15.73;2.45;;;18.50;67.00;;;;;;10439088;28;20627;-66
2022/11/02 08:13:24;;;;;;;8.68;2.47;;;18.40;67.00;;;;;;10450541;28;20021;-63
2022/11/02 08:18:28;;;;;;;9.80;2.05;;;18.40;67.20;;;;;;10456064;28;20380;-67
2022/11/02 08:23:29;;;;;;;17.70;3.50;;;18.50;67.10;;;;;;10434924;28;20203;-73
2022/11/02 08:28:34;;;;;;;7.68;1.52;;;18.50;66.80;;;;;;10441752;28;20076;-67
2022/11/02 08:33:35;;;;;;;24.02;3.20;;;18.70;66.20;;;;;;10428898;28;20052;-65
2022/11/02 08:38:36;;;;;;;20.95;2.78;;;18.70;66.40;;;;;;10450137;28;20105;-66
2022/11/02 08:43:36;;;;;;;17.38;2.60;;;18.70;67.30;;;;;;10417871;28;20465;-63
2022/11/02 08:48:37;;;;;;;21.23;3.13;;;18.60;66.90;;;;;;10448149;28;20070;-65
2022/11/02 08:53:38;;;;;;;15.73;3.33;;;18.60;68.10;;;;;;10431027;28;20630;-64
2022/11/02 08:58:38;;;;;;;9.98;2.30;;;18.60;67.30;;;;;;10443283;28;20017;-65
2022/11/02 09:03:39;;;;;;;7.40;1.95;;;18.60;67.60;;;;;;10430616;28;20507;-64
2022/11/02 09:08:40;;;;;;;13.15;2.10;;;18.60;67.90;;;;;;10429977;28;20037;-65
2022/11/02 09:13:40;;;;;;;14.68;2.75;;;18.70;68.10;;;;;;10439454;28;20060;-60
2022/11/02 09:18:41;;;;;;;13.05;2.17;;;18.70;68.10;;;;;;10430935;28;20613;-63
2022/11/02 09:23:42;;;;;;;16.85;2.65;;;18.70;68.60;;;;;;10427487;28;20030;-64
2022/11/02 09:28:43;;;;;;;9.20;2.92;;;18.70;68.10;;;;;;10428122;28;20024;-65
2022/11/02 09:33:44;;;;;;;8.65;2.13;;;18.70;68.20;;;;;;10429630;28;20052;-66
2022/11/02 09:38:45;;;;;;;17.25;3.40;;;18.70;68.60;;;;;;10422329;28;20033;-66
2022/11/02 09:44:00;;;;;;;13.63;2.75;;;18.80;68.30;;;;;;10432905;28;20813;-63
2022/11/02 09:49:16;;;;;;;12.48;2.95;;;18.80;68.40;;;;;;10422953;28;20033;-68
2022/11/02 09:54:42;;;;;;;8.77;2.00;;;18.80;68.30;;;;;;10450167;28;20045;-65
2022/11/02 09:59:42;;;;;;;16.15;2.85;;;18.90;68.50;;;;;;10454368;28;20052;-63
2022/11/02 10:05:26;;;;;;;7.38;2.17;;;18.90;68.50;;;;;;10420455;28;20068;-64
2022/11/02 10:11:26;;;;;;;10.82;2.85;;;18.90;68.20;;;;;;10419180;28;20061;-62
2022/11/02 10:16:43;;;;;;;11.27;2.10;;;18.90;68.00;;;;;;10418710;28;20060;-63
2022/11/02 10:21:48;;;;;;;10.18;3.15;;;18.90;67.90;;;;;;10414898;28;20022;-63
2022/11/02 10:26:50;;;;;;;10.90;1.73;;;18.90;67.60;;;;;;10416853;28;20025;-63
2022/11/02 10:31:51;;;;;;;11.40;2.67;;;18.90;67.70;;;;;;10452618;28;20104;-63
2022/11/02 10:37:17;;;;;;;5.25;2.35;;;18.90;67.70;;;;;;10453715;28;20056;-63
2022/11/02 10:42:42;;;;;;;7.80;1.63;;;19.00;67.70;;;;;;10442082;28;20029;-63
2022/11/02 10:48:14;;;;;;;9.68;1.95;;;19.00;67.70;;;;;;10433718;28;20026;-63
2022/11/02 10:53:18;;;;;;;6.95;2.97;;;19.00;67.60;;;;;;10443780;28;20615;-63
2022/11/02 10:58:20;;;;;;;9.20;1.67;;;19.10;67.70;;;;;;10459055;28;20037;-63
2022/11/02 11:03:21;;;;;;;8.20;2.38;;;19.10;67.50;;;;;;10442090;28;20561;-64
2022/11/02 11:08:29;;;;;;;7.53;1.80;;;19.10;67.50;;;;;;10411173;28;20052;-63
2022/11/02 11:13:30;;;;;;;8.35;2.45;;;19.10;67.70;;;;;;10426059;28;20033;-64
2022/11/02 11:18:31;;;;;;;5.07;1.63;;;19.10;68.60;;;;;;10418303;28;20526;-63
2022/11/02 11:23:32;;;;;;;12.77;2.50;;;19.10;68.80;;;;;;10447403;28;20021;-62
2022/11/02 11:28:53;;;;;;;8.13;1.65;;;19.20;69.00;;;;;;10448533;28;20078;-63
2022/11/02 11:33:57;;;;;;;9.05;1.80;;;19.20;69.10;;;;;;10457708;28;20021;-64
2022/11/02 11:39:03;;;;;;;12.38;2.80;;;19.20;69.20;;;;;;10421632;28;20101;-62
2022/11/02 11:44:13;;;;;;;8.25;2.28;;;19.20;69.30;;;;;;10427948;28;20029;-63
2022/11/02 11:49:29;;;;;;;13.80;2.75;;;19.30;69.30;;;;;;10448549;28;20025;-64
2022/11/02 11:54:33;;;;;;;8.52;2.00;;;19.30;69.50;;;;;;10435556;28;20061;-64
2022/11/02 11:59:46;;;;;;;7.28;1.92;;;19.30;69.60;;;;;;10442132;28;20021;-64
2022/11/02 12:04:47;;;;;;;4.72;2.05;;;19.30;69.60;;;;;;10465228;28;20045;-65
2022/11/02 12:10:30;;;;;;;8.45;2.60;;;19.40;69.60;;;;;;10428155;28;20022;-63
2022/11/02 12:15:42;;;;;;;16.83;2.35;;;19.40;69.60;;;;;;10463063;28;20017;-62
2022/11/02 12:21:04;;;;;;;12.80;2.17;;;19.40;70.00;;;;;;10437457;28;20040;-63
2022/11/02 12:26:40;;;;;;;9.77;2.03;;;19.40;69.70;;;;;;10431193;28;20025;-63
2022/11/02 12:31:45;;;;;;;10.27;2.47;;;19.40;69.80;;;;;;10453712;28;20082;-63
2022/11/02 12:37:02;;;;;;;11.65;2.47;;;19.40;69.70;;;;;;10465527;28;20701;-59
2022/11/02 12:42:40;;;;;;;10.93;2.42;;;19.40;69.40;;;;;;10443527;28;20040;-63
2022/11/02 12:48:02;;;;;;;12.85;2.85;;;19.40;69.50;;;;;;10441017;28;20356;-63
2022/11/02 12:53:36;;;;;;;8.73;2.15;;;19.40;69.40;;;;;;10453670;28;20418;-62
2022/11/02 12:58:39;;;;;;;12.75;2.05;;;19.40;69.50;;;;;;10424080;28;20068;-63
2022/11/02 13:04:11;;;;;;;9.93;2.42;;;19.40;69.40;;;;;;10406361;28;20041;-64
2022/11/02 13:09:27;;;;;;;9.82;2.58;;;19.40;69.30;;;;;;10439052;28;20029;-63
2022/11/02 13:14:41;;;;;;;7.00;1.92;;;19.40;69.30;;;;;;10463132;28;20505;-62
2022/11/02 13:19:50;;;;;;;11.07;3.72;;;19.60;68.80;;;;;;10449154;28;20021;-61
2022/11/02 13:25:00;;;;;;;5.43;2.30;;;19.70;68.20;;;;;;10463505;28;20037;-61
2022/11/02 13:30:13;;;;;;;7.80;1.70;;;19.60;69.10;;;;;;10437446;28;20017;-68
2022/11/02 13:35:34;;;;;;;11.90;2.85;;;19.40;69.10;;;;;;10416587;28;20115;-63
2022/11/02 13:40:57;;;;;;;15.73;3.22;;;19.40;69.50;;;;;;10433955;28;20108;-66
2022/11/02 13:46:35;;;;;;;14.65;2.65;;;19.40;69.60;;;;;;10433031;28;20021;-61
2022/11/02 13:51:42;;;;;;;17.30;3.03;;;19.40;69.70;;;;;;10448076;28;20111;-66
2022/11/02 13:56:44;;;;;;;13.02;2.97;;;19.40;69.80;;;;;;10443484;28;20136;-64
2022/11/02 14:01:46;;;;;;;9.55;3.25;;;19.40;69.90;;;;;;10433444;28;20436;-62
2022/11/02 14:07:00;;;;;;;11.85;2.78;;;19.40;69.90;;;;;;10422484;28;20040;-62
2022/11/02 14:12:21;;;;;;;13.23;3.92;;;19.40;70.00;;;;;;10438526;28;20021;-65
2022/11/02 14:17:22;;;;;;;9.25;3.78;;;19.30;70.50;;;;;;10420648;28;20457;-64
2022/11/02 14:22:23;;;;;;;14.75;3.80;;;19.30;70.60;;;;;;10444204;28;20036;-65
2022/11/02 14:27:23;;;;;;;25.70;4.70;;;19.30;72.10;;;;;;10446349;28;20071;-66
2022/11/02 14:32:42;;;;;;;15.88;3.83;;;19.30;72.40;;;;;;10442197;28;20031;-65
2022/11/02 14:38:39;;;;;;;17.38;4.13;;;19.30;70.50;;;;;;10450562;28;20021;-65
2022/11/02 14:44:26;;;;;;;13.65;2.90;;;19.20;70.30;;;;;;10439495;28;20032;-64
2022/11/02 14:49:45;;;;;;;12.30;2.65;;;19.10;70.30;;;;;;10430519;28;20010;-63
2022/11/02 14:54:59;;;;;;;20.85;4.05;;;19.10;70.10;;;;;;10429166;28;20068;-63
2022/11/02 15:00:22;;;;;;;14.75;3.58;;;19.10;74.90;;;;;;10419020;28;20025;-63
2022/11/02 15:05:36;;;;;;;12.60;3.10;;;19.10;72.20;;;;;;10430236;28;20110;-65
2022/11/02 15:10:44;;;;;;;16.55;6.05;;;19.20;72.00;;;;;;10437422;28;20073;-66
2022/11/02 15:15:53;;;;;;;12.30;2.70;;;19.10;71.60;;;;;;10440390;28;20101;-65
2022/11/02 15:21:09;;;;;;;;;;;19.00;70.50;;;;;;10452132;28;20154;-64
2022/11/02 15:26:50;;;;;;;8.90;2.90;;;18.90;70.40;;;;;;10452144;28;20078;-64
2022/11/02 15:31:54;;;;;;;;;;;18.90;70.40;;;;;;10415315;28;20038;-64
2022/11/02 15:36:58;;;;;;;10.32;2.53;;;18.90;71.00;;;;;;10443146;28;19905;-64
2022/11/02 15:42:19;;;;;;;9.57;2.60;;;18.90;71.20;;;;;;10447796;28;20035;-67
2022/11/02 15:47:41;;;;;;;8.57;2.47;;;18.90;70.40;;;;;;10458845;28;20052;-65
2022/11/02 15:53:30;;;;;;;7.68;2.20;;;18.90;70.40;;;;;;10438087;28;20399;-65
2022/11/02 15:59:01;;;;;;;8.68;2.25;;;18.80;70.40;;;;;;10447031;28;20356;-65
2022/11/02 16:04:06;;;;;;;10.73;2.25;;;18.80;70.40;;;;;;10416276;28;20029;-65
2022/11/02 16:09:38;;;;;;;9.15;2.40;;;18.80;70.40;;;;;;10406569;28;20026;-65
2022/11/02 16:14:40;;;;;;;9.05;3.30;;;18.80;70.40;;;;;;10424714;28;20059;-65
2022/11/02 16:19:40;;;;;;;9.55;3.38;;;18.80;70.40;;;;;;10440562;28;20021;-66
2022/11/02 16:24:45;;;;;;;7.03;2.78;;;18.80;70.40;;;;;;10391535;28;21384;-64
2022/11/02 16:29:47;;;;;;;9.82;2.97;;;18.70;70.30;;;;;;10435848;28;20102;-65
2022/11/02 16:34:48;;;;;;;7.00;3.03;;;18.70;70.40;;;;;;10440102;28;20021;-65
2022/11/02 16:39:49;;;;;;;8.25;3.28;;;18.70;70.30;;;;;;10390733;28;20029;-65
2022/11/02 16:44:58;;;;;;;5.43;3.30;;;18.70;70.40;;;;;;10446382;28;20574;-65
2022/11/02 16:49:59;;;;;;;7.47;3.53;;;18.70;70.30;;;;;;10447925;28;20116;-64
2022/11/02 16:55:00;;;;;;;10.35;4.97;;;18.70;70.60;;;;;;10464226;28;20051;-63
2022/11/02 17:00:08;;;;;;;10.18;4.35;;;18.80;71.20;;;;;;10429588;28;20116;-64
2022/11/02 17:05:19;;;;;;;11.55;3.75;;;18.80;71.20;;;;;;10434418;28;20025;-64
2022/11/02 17:10:26;;;;;;;17.83;3.97;;;18.80;72.00;;;;;;10430331;28;20053;-67
2022/11/02 17:15:33;;;;;;;13.70;4.85;;;18.80;72.00;;;;;;10456789;28;20099;-62
2022/11/02 17:20:36;;;;;;;17.35;4.43;;;19.00;73.90;;;;;;10432776;28;20080;-65
2022/11/02 17:25:39;;;;;;;14.27;3.40;;;19.00;72.80;;;;;;10407629;28;20022;-65
2022/11/02 17:30:41;;;;;;;18.15;4.55;;;19.10;73.60;;;;;;10446562;28;20016;-65
2022/11/02 17:35:48;;;;;;;10.75;3.40;;;19.10;73.40;;;;;;10447752;28;20757;-65
2022/11/02 17:40:51;;;;;;;14.55;2.75;;;19.10;73.40;;;;;;10462080;28;20048;-64
2022/11/02 17:45:58;;;;;;;20.23;3.08;;;19.10;72.90;;;;;;10462660;28;20055;-66
2022/11/02 17:50:58;;;;;;;15.95;3.15;;;19.10;72.90;;;;;;10440489;28;20419;-63
2022/11/02 17:55:59;;;;;;;21.35;3.95;;;19.10;73.20;;;;;;10405158;28;20049;-64
2022/11/02 18:01:01;;;;;;;16.08;3.80;;;19.10;73.10;;;;;;10446241;28;20108;-61
2022/11/02 18:06:02;;;;;;;16.88;4.07;;;19.10;73.30;;;;;;10431601;28;20112;-62
2022/11/02 18:11:03;;;;;;;12.45;4.00;;;19.00;73.30;;;;;;10431029;28;20027;-64
2022/11/02 18:16:04;;;;;;;15.75;4.28;;;18.90;73.10;;;;;;10395272;28;20030;-63
2022/11/02 18:21:05;;;;;;;18.85;3.55;;;18.80;73.20;;;;;;10422527;28;20120;-64
2022/11/02 18:26:09;;;;;;;18.30;4.70;;;18.80;72.90;;;;;;10428949;28;20021;-63
2022/11/02 18:31:10;;;;;;;9.82;2.88;;;18.80;72.30;;;;;;10428177;28;20009;-63
2022/11/02 18:36:11;;;;;;;11.02;2.78;;;18.80;73.10;;;;;;10444975;28;20071;-63
2022/11/02 18:41:28;;;;;;;20.17;4.15;;;18.80;72.40;;;;;;10441277;28;20437;-55
2022/11/02 18:46:31;;;;;;;10.50;3.38;;;18.80;72.20;;;;;;10441986;28;20043;-55
2022/11/02 18:51:32;;;;;;;10.35;3.15;;;18.80;72.50;;;;;;10444198;28;20025;-55
2022/11/02 18:56:33;;;;;;;10.20;2.92;;;18.80;72.30;;;;;;10450150;28;20060;-53
2022/11/02 19:01:33;;;;;;;14.35;3.15;;;18.80;72.30;;;;;;10447673;28;20368;-53
2022/11/02 19:12:00;;;;;;;12.17;3.93;;;18.80;72.20;;;;;;10443462;28;20041;-66
2022/11/02 19:17:02;;;;;;;12.38;3.40;;;18.70;72.10;;;;;;10435608;28;20600;-65
2022/11/02 19:22:03;;;;;;;9.00;2.35;;;18.80;72.30;;;;;;10445314;28;20072;-65
2022/11/02 19:27:03;;;;;;;14.60;2.92;;;18.80;72.20;;;;;;10437481;28;20112;-65
2022/11/02 19:32:05;;;;;;;11.40;2.97;;;18.80;72.30;;;;;;10420304;28;20056;-66
2022/11/02 19:37:06;;;;;;;11.65;2.38;;;18.80;72.30;;;;;;10453698;28;20029;-64
2022/11/02 19:42:07;;;;;;;10.65;3.08;;;18.80;72.20;;;;;;10441465;28;20036;-66
2022/11/02 19:47:09;;;;;;;8.68;3.20;;;18.80;72.20;;;;;;10428348;28;20088;-65
2022/11/02 19:52:09;;;;;;;15.15;3.90;;;18.80;72.50;;;;;;10428019;28;20021;-65
2022/11/02 19:57:10;;;;;;;15.80;3.45;;;18.70;71.00;;;;;;10392187;28;20569;-66
2022/11/02 20:02:10;;;;;;;9.77;2.55;;;18.70;69.80;;;;;;10426008;28;20125;-64
2022/11/02 20:07:11;;;;;;;10.25;2.72;;;18.80;68.90;;;;;;10442097;28;20156;-65
2022/11/02 20:12:12;;;;;;;10.80;2.90;;;18.80;68.60;;;;;;10435693;28;20029;-65
2022/11/02 20:17:12;;;;;;;11.05;2.85;;;18.80;67.60;;;;;;10447285;28;20449;-65
2022/11/02 20:22:13;;;;;;;7.30;2.10;;;18.80;67.10;;;;;;10447488;28;20067;-65
2022/11/02 20:27:14;;;;;;;4.78;1.85;;;18.80;66.50;;;;;;10429984;28;20067;-65
2022/11/02 20:32:19;;;;;;;5.28;2.28;;;18.80;66.20;;;;;;10430677;28;20139;-65
2022/11/02 20:37:19;;;;;;;7.70;2.15;;;18.80;65.70;;;;;;10429506;28;20036;-66
2022/11/02 20:42:20;;;;;;;5.95;2.08;;;18.80;65.40;;;;;;10429323;28;20133;-65
2022/11/02 20:47:21;;;;;;;5.63;1.63;;;18.70;65.00;;;;;;10431232;28;20531;-66
2022/11/02 20:52:22;;;;;;;6.03;1.60;;;18.80;64.60;;;;;;10430832;28;20017;-65
2022/11/02 20:57:23;;;;;;;4.05;1.65;;;18.70;64.30;;;;;;10441467;28;20045;-65
2022/11/02 21:02:23;;;;;;;3.97;1.60;;;18.70;64.00;;;;;;10425795;28;20057;-65
2022/11/02 21:07:24;;;;;;;5.82;1.58;;;18.70;63.70;;;;;;10456780;28;20079;-66
2022/11/02 21:17:44;;;;;;;6.47;2.10;;;18.70;63.30;;;;;;10409365;28;20048;-66
2022/11/02 21:22:47;;;;;;;7.18;2.28;;;18.70;63.00;;;;;;10428279;28;20838;-65
2022/11/02 21:27:51;;;;;;;5.47;1.80;;;18.70;62.80;;;;;;10406139;28;20496;-65
2022/11/02 21:32:52;;;;;;;5.65;1.58;;;18.70;62.50;;;;;;10405888;28;20025;-65
2022/11/02 21:37:56;;;;;;;6.03;1.65;;;18.70;62.30;;;;;;10405494;28;20025;-65
2022/11/02 21:42:57;;;;;;;4.53;1.48;;;18.70;62.10;;;;;;10404884;28;20061;-65
2022/11/02 21:47:57;;;;;;;3.42;1.40;;;18.70;61.90;;;;;;10406196;28;20097;-65
2022/11/02 21:52:58;;;;;;;4.78;1.30;;;18.70;61.70;;;;;;10405066;28;20087;-66
2022/11/02 21:57:59;;;;;;;5.43;1.80;;;18.60;61.50;;;;;;10425261;28;20083;-66
2022/11/02 22:02:59;;;;;;;4.00;1.38;;;18.70;61.30;;;;;;10435316;28;20040;-65
2022/11/02 22:13:31;;;;;;;3.53;1.37;;;18.70;61.00;;;;;;10441133;28;20040;-65
2022/11/02 22:18:32;;;;;;;4.15;0.95;;;18.60;60.80;;;;;;10405563;28;20469;-65
2022/11/02 22:23:32;;;;;;;2.45;0.95;;;18.70;60.70;;;;;;10417810;28;20038;-65
2022/11/02 22:28:38;;;;;;;3.45;1.58;;;18.60;60.60;;;;;;10405251;28;20433;-65
2022/11/02 22:33:44;;;;;;;2.20;1.00;;;18.60;60.30;;;;;;10403815;28;20026;-65
2022/11/02 22:38:52;;;;;;;3.28;1.33;;;18.60;60.30;;;;;;10413965;28;20345;-65
2022/11/02 22:44:17;;;;;;;3.78;1.10;;;18.60;60.10;;;;;;10404783;28;20029;-65
2022/11/02 22:49:18;;;;;;;1.75;0.80;;;18.60;60.10;;;;;;10460004;28;20018;-65
2022/11/02 22:54:19;;;;;;;2.05;0.70;;;18.60;59.90;;;;;;10445543;28;20062;-65
2022/11/02 22:59:20;;;;;;;1.88;1.00;;;18.60;59.60;;;;;;10442122;28;20056;-65
2022/11/02 23:04:21;;;;;;;4.45;1.00;;;;;;;;;;10412756;28;20068;-65
2022/11/02 23:09:22;;;;;;;2.55;1.00;;;18.60;58.80;;;;;;10427728;28;20699;-64
2022/11/02 23:14:22;;;;;;;3.30;1.13;;;18.60;59.90;;;;;;10418568;28;20045;-65
2022/11/02 23:19:28;;;;;;;3.45;1.00;;;18.60;59.20;;;;;;10445244;28;20138;-65
2022/11/02 23:40:43;;;;;;;2.80;0.88;;;18.60;58.80;;;;;;10376586;28;20037;-64
2022/11/02 23:45:43;;;;;;;3.38;0.82;;;18.60;58.50;;;;;;10467062;28;20434;-65
